Impacts METAR Board
IDs:

KEDC - Austin/Executive Arp, TX, US

Updated at: 1200 UTC 16 Jul 2019
Potential Impact None Slight Moderate High
Time 16/00Z 16/01Z 16/02Z 16/03Z 16/04Z 16/05Z 16/06Z 16/07Z 16/08Z 16/09Z 16/10Z 16/11Z 16/12Z
Temp90 90 86 84 84 82 81 77 77 77 77 77 77
Dewpt75 73 73 73 73 73 73 75 75 75 75 75 75
Altim29.88 29.89 29.89 29.90 29.93 29.95 29.96 29.97 29.97 29.97 29.97 29.99 30.00
VIS10 9 10 10 10 9 9 8 8 8 7 7 6
CIG-- -- -- 50 -- -- -- 37 42 13 31 15 11
CoverCLRCLRCLRBKNCLRCLRCLROVCBKNOVCBKNOVCOVC
FltCatVFRVFRVFRVFRVFRVFRVFRVFRVFRMVFRVFRMVFRMVFR
WX------------------------BR
WDir210180150170180200180170190200190200200
WSpd5 3 3 6 6 7 5 4 5 7 6 6 5
WGst-- -- -- -- -- -- -- -- -- -- -- -- --
Raw hourly METARs
KEDC 152355Z AUTO 21005KT 10SM CLR 32/24 A2988 RMK AO2
KEDC 160055Z AUTO 18003KT 9SM CLR 32/23 A2989 RMK AO2
KEDC 160155Z AUTO 15003KT 10SM CLR 30/23 A2989 RMK AO2
KEDC 160255Z AUTO 17006KT 10SM BKN050 29/23 A2990 RMK AO2
KEDC 160355Z AUTO 18006KT 10SM CLR 29/23 A2993 RMK AO2
KEDC 160455Z AUTO 20007KT 9SM CLR 28/23 A2995 RMK AO2
KEDC 160555Z AUTO 18005KT 9SM CLR 27/23 A2996 RMK AO2
KEDC 160655Z AUTO 17004KT 8SM SCT019 BKN037 OVC043 25/24 A2997 RMK AO2
KEDC 160755Z AUTO 19005KT 8SM FEW013 BKN042 25/24 A2997 RMK AO2
KEDC 160855Z AUTO 20007KT 8SM OVC013 25/24 A2997 RMK AO2
KEDC 160955Z AUTO 19006KT 7SM SCT013 SCT018 BKN031 25/24 A2997 RMK AO2
KEDC 161055Z AUTO 20006KT 7SM OVC015 25/24 A2999 RMK AO2
KEDC 161155Z AUTO 20005KT 6SM BR BKN011 OVC020 25/24 A3000 RMK AO2